sensor_id;sensor_type;location;lat;lon;timestamp;temperature;humidity
25914;DHT22;13718;50.922;5.346;2023-12-14T00:01:53;9.30;99.90
25914;DHT22;13718;50.922;5.346;2023-12-14T00:04:18;9.30;99.90
25914;DHT22;13718;50.922;5.346;2023-12-14T00:06:44;9.40;99.90
25914;DHT22;13718;50.922;5.346;2023-12-14T00:09:09;9.40;99.90
25914;DHT22;13718;50.922;5.346;2023-12-14T00:11:38;9.40;99.90
25914;DHT22;13718;50.922;5.346;2023-12-14T00:14:04;9.50;99.90
25914;DHT22;13718;50.922;5.346;2023-12-14T00:16:30;9.50;99.90
25914;DHT22;13718;50.922;5.346;2023-12-14T00:18:55;9.40;99.90
25914;DHT22;13718;50.922;5.346;2023-12-14T00:21:21;9.40;99.90
25914;DHT22;13718;50.922;5.346;2023-12-14T00:23:46;9.40;99.90
25914;DHT22;13718;50.922;5.346;2023-12-14T00:26:12;9.40;99.90
25914;DHT22;13718;50.922;5.346;2023-12-14T00:28:37;9.50;99.90
25914;DHT22;13718;50.922;5.346;2023-12-14T00:31:03;9.40;99.90
25914;DHT22;13718;50.922;5.346;2023-12-14T00:33:29;9.40;99.90
25914;DHT22;13718;50.922;5.346;2023-12-14T00:35:54;9.50;99.90
25914;DHT22;13718;50.922;5.346;2023-12-14T00:38:20;9.50;99.90
25914;DHT22;13718;50.922;5.346;2023-12-14T00:40:45;9.50;99.90
25914;DHT22;13718;50.922;5.346;2023-12-14T00:43:11;9.50;99.90
25914;DHT22;13718;50.922;5.346;2023-12-14T00:45:36;9.60;99.90
25914;DHT22;13718;50.922;5.346;2023-12-14T00:48:02;9.60;99.90
25914;DHT22;13718;50.922;5.346;2023-12-14T00:50:27;9.50;99.90
25914;DHT22;13718;50.922;5.346;2023-12-14T00:52:53;9.50;99.90
25914;DHT22;13718;50.922;5.346;2023-12-14T00:55:18;9.50;99.90
25914;DHT22;13718;50.922;5.346;2023-12-14T00:57:44;9.50;99.90
25914;DHT22;13718;50.922;5.346;2023-12-14T01:00:09;9.60;99.90
25914;DHT22;13718;50.922;5.346;2023-12-14T01:02:36;9.70;99.90
25914;DHT22;13718;50.922;5.346;2023-12-14T01:05:01;9.70;99.90
25914;DHT22;13718;50.922;5.346;2023-12-14T01:07:27;9.70;99.90
25914;DHT22;13718;50.922;5.346;2023-12-14T01:09:52;9.70;99.90
25914;DHT22;13718;50.922;5.346;2023-12-14T01:12:18;9.70;99.90
25914;DHT22;13718;50.922;5.346;2023-12-14T01:14:43;9.60;99.90
25914;DHT22;13718;50.922;5.346;2023-12-14T01:17:09;9.70;99.90
25914;DHT22;13718;50.922;5.346;2023-12-14T01:19:34;9.70;99.90
25914;DHT22;13718;50.922;5.346;2023-12-14T01:21:59;9.60;99.90
25914;DHT22;13718;50.922;5.346;2023-12-14T01:24:25;9.50;99.90
25914;DHT22;13718;50.922;5.346;2023-12-14T01:26:50;9.40;99.90
25914;DHT22;13718;50.922;5.346;2023-12-14T01:29:16;9.40;99.90
25914;DHT22;13718;50.922;5.346;2023-12-14T01:31:41;9.30;99.90
25914;DHT22;13718;50.922;5.346;2023-12-14T01:34:07;9.40;99.90
25914;DHT22;13718;50.922;5.346;2023-12-14T01:36:33;9.40;99.90
25914;DHT22;13718;50.922;5.346;2023-12-14T01:38:59;9.40;99.90
25914;DHT22;13718;50.922;5.346;2023-12-14T01:41:24;9.40;99.90
25914;DHT22;13718;50.922;5.346;2023-12-14T01:43:50;9.40;99.90
25914;DHT22;13718;50.922;5.346;2023-12-14T01:46:15;9.50;99.90
25914;DHT22;13718;50.922;5.346;2023-12-14T01:48:41;9.50;99.90
25914;DHT22;13718;50.922;5.346;2023-12-14T01:51:07;9.50;99.90
25914;DHT22;13718;50.922;5.346;2023-12-14T01:53:33;9.50;99.90
25914;DHT22;13718;50.922;5.346;2023-12-14T01:55:58;9.50;99.90
25914;DHT22;13718;50.922;5.346;2023-12-14T01:58:24;9.50;99.90
25914;DHT22;13718;50.922;5.346;2023-12-14T02:01:05;9.50;99.90
25914;DHT22;13718;50.922;5.346;2023-12-14T02:03:33;9.60;99.90
25914;DHT22;13718;50.922;5.346;2023-12-14T02:05:59;9.50;99.90
25914;DHT22;13718;50.922;5.346;2023-12-14T02:08:27;9.60;99.90
25914;DHT22;13718;50.922;5.346;2023-12-14T02:10:52;9.60;99.90
25914;DHT22;13718;50.922;5.346;2023-12-14T02:13:17;9.60;99.90
25914;DHT22;13718;50.922;5.346;2023-12-14T02:15:43;9.50;99.90
25914;DHT22;13718;50.922;5.346;2023-12-14T02:18:08;9.50;99.90
25914;DHT22;13718;50.922;5.346;2023-12-14T02:20:34;9.70;99.90
25914;DHT22;13718;50.922;5.346;2023-12-14T02:22:59;9.70;99.90
25914;DHT22;13718;50.922;5.346;2023-12-14T02:25:27;9.50;99.90
25914;DHT22;13718;50.922;5.346;2023-12-14T02:27:52;9.60;99.90
25914;DHT22;13718;50.922;5.346;2023-12-14T02:30:18;9.70;99.90
25914;DHT22;13718;50.922;5.346;2023-12-14T02:32:43;9.50;99.90
25914;DHT22;13718;50.922;5.346;2023-12-14T02:35:09;9.40;99.90
25914;DHT22;13718;50.922;5.346;2023-12-14T02:37:34;9.30;99.90
25914;DHT22;13718;50.922;5.346;2023-12-14T02:40:03;9.30;99.90
25914;DHT22;13718;50.922;5.346;2023-12-14T02:42:29;9.30;99.90
25914;DHT22;13718;50.922;5.346;2023-12-14T02:44:55;9.10;99.90
25914;DHT22;13718;50.922;5.346;2023-12-14T02:47:21;8.90;99.90
25914;DHT22;13718;50.922;5.346;2023-12-14T02:49:46;9.00;99.90
25914;DHT22;13718;50.922;5.346;2023-12-14T02:52:12;9.00;99.90
25914;DHT22;13718;50.922;5.346;2023-12-14T02:54:38;8.90;99.90
25914;DHT22;13718;50.922;5.346;2023-12-14T02:57:04;8.90;99.90
25914;DHT22;13718;50.922;5.346;2023-12-14T02:59:29;8.90;99.90
25914;DHT22;13718;50.922;5.346;2023-12-14T03:01:55;9.00;99.90
25914;DHT22;13718;50.922;5.346;2023-12-14T03:04:20;8.90;99.90
25914;DHT22;13718;50.922;5.346;2023-12-14T03:06:46;8.80;99.90
25914;DHT22;13718;50.922;5.346;2023-12-14T03:09:11;8.70;99.90
25914;DHT22;13718;50.922;5.346;2023-12-14T03:11:37;8.70;99.90
25914;DHT22;13718;50.922;5.346;2023-12-14T03:14:02;8.60;99.90
25914;DHT22;13718;50.922;5.346;2023-12-14T03:16:28;8.60;99.90
25914;DHT22;13718;50.922;5.346;2023-12-14T03:18:53;8.50;99.90
25914;DHT22;13718;50.922;5.346;2023-12-14T03:21:19;8.50;99.90
25914;DHT22;13718;50.922;5.346;2023-12-14T03:23:45;8.50;99.90
25914;DHT22;13718;50.922;5.346;2023-12-14T03:26:10;8.40;99.90
25914;DHT22;13718;50.922;5.346;2023-12-14T03:28:36;8.40;99.90
25914;DHT22;13718;50.922;5.346;2023-12-14T03:31:02;8.30;99.90
25914;DHT22;13718;50.922;5.346;2023-12-14T03:33:27;8.40;99.90
25914;DHT22;13718;50.922;5.346;2023-12-14T03:35:52;8.30;99.90
25914;DHT22;13718;50.922;5.346;2023-12-14T03:38:18;8.50;99.90
25914;DHT22;13718;50.922;5.346;2023-12-14T03:40:43;8.40;99.90
25914;DHT22;13718;50.922;5.346;2023-12-14T03:43:09;8.20;99.90
25914;DHT22;13718;50.922;5.346;2023-12-14T03:45:35;8.10;99.90
25914;DHT22;13718;50.922;5.346;2023-12-14T03:48:00;8.10;99.90
25914;DHT22;13718;50.922;5.346;2023-12-14T03:50:26;8.00;99.90
25914;DHT22;13718;50.922;5.346;2023-12-14T03:52:51;8.10;99.90
25914;DHT22;13718;50.922;5.346;2023-12-14T03:55:17;8.10;99.90
25914;DHT22;13718;50.922;5.346;2023-12-14T03:57:42;8.30;99.90
25914;DHT22;13718;50.922;5.346;2023-12-14T04:00:11;8.40;99.90
25914;DHT22;13718;50.922;5.346;2023-12-14T04:02:38;8.30;99.90
25914;DHT22;13718;50.922;5.346;2023-12-14T04:05:04;8.40;99.90
25914;DHT22;13718;50.922;5.346;2023-12-14T04:07:29;8.30;99.90
25914;DHT22;13718;50.922;5.346;2023-12-14T04:09:55;8.20;99.90
25914;DHT22;13718;50.922;5.346;2023-12-14T04:12:20;8.10;99.90
25914;DHT22;13718;50.922;5.346;2023-12-14T04:14:46;8.10;99.90
25914;DHT22;13718;50.922;5.346;2023-12-14T04:17:11;8.10;99.90
25914;DHT22;13718;50.922;5.346;2023-12-14T04:19:38;8.20;99.90
25914;DHT22;13718;50.922;5.346;2023-12-14T04:22:03;8.10;99.90
25914;DHT22;13718;50.922;5.346;2023-12-14T04:24:29;8.20;99.90
25914;DHT22;13718;50.922;5.346;2023-12-14T04:26:55;8.30;99.90
25914;DHT22;13718;50.922;5.346;2023-12-14T04:29:21;8.10;99.90
25914;DHT22;13718;50.922;5.346;2023-12-14T04:31:46;8.00;99.90
25914;DHT22;13718;50.922;5.346;2023-12-14T04:34:12;7.90;99.90
25914;DHT22;13718;50.922;5.346;2023-12-14T04:36:44;7.90;99.90
25914;DHT22;13718;50.922;5.346;2023-12-14T04:39:10;7.90;99.90
25914;DHT22;13718;50.922;5.346;2023-12-14T04:41:35;7.80;99.90
25914;DHT22;13718;50.922;5.346;2023-12-14T04:44:01;7.80;99.90
25914;DHT22;13718;50.922;5.346;2023-12-14T04:46:26;7.70;99.90
25914;DHT22;13718;50.922;5.346;2023-12-14T04:48:52;7.70;99.90
25914;DHT22;13718;50.922;5.346;2023-12-14T04:51:17;7.60;99.90
25914;DHT22;13718;50.922;5.346;2023-12-14T04:53:43;7.60;99.90
25914;DHT22;13718;50.922;5.346;2023-12-14T04:56:11;7.60;99.90
25914;DHT22;13718;50.922;5.346;2023-12-14T04:58:38;7.60;99.90
25914;DHT22;13718;50.922;5.346;2023-12-14T05:01:03;7.70;99.90
25914;DHT22;13718;50.922;5.346;2023-12-14T05:03:29;7.70;99.90
25914;DHT22;13718;50.922;5.346;2023-12-14T05:05:54;7.70;99.90
25914;DHT22;13718;50.922;5.346;2023-12-14T05:08:20;7.80;99.90
25914;DHT22;13718;50.922;5.346;2023-12-14T05:10:45;7.60;99.90
25914;DHT22;13718;50.922;5.346;2023-12-14T05:13:11;7.70;99.90
25914;DHT22;13718;50.922;5.346;2023-12-14T05:15:36;7.80;99.90
25914;DHT22;13718;50.922;5.346;2023-12-14T05:18:02;7.60;99.90
25914;DHT22;13718;50.922;5.346;2023-12-14T05:20:27;7.50;99.90
25914;DHT22;13718;50.922;5.346;2023-12-14T05:22:53;7.50;99.90
25914;DHT22;13718;50.922;5.346;2023-12-14T05:25:18;7.50;99.90
25914;DHT22;13718;50.922;5.346;2023-12-14T05:27:44;7.40;99.90
25914;DHT22;13718;50.922;5.346;2023-12-14T05:30:09;7.40;99.90
25914;DHT22;13718;50.922;5.346;2023-12-14T05:32:35;7.40;99.90
25914;DHT22;13718;50.922;5.346;2023-12-14T05:35:00;7.50;99.90
25914;DHT22;13718;50.922;5.346;2023-12-14T05:37:26;7.40;99.90
25914;DHT22;13718;50.922;5.346;2023-12-14T05:39:51;7.50;99.90
25914;DHT22;13718;50.922;5.346;2023-12-14T05:42:17;7.40;99.90
25914;DHT22;13718;50.922;5.346;2023-12-14T05:44:45;7.40;99.90
25914;DHT22;13718;50.922;5.346;2023-12-14T05:47:11;7.40;99.90
25914;DHT22;13718;50.922;5.346;2023-12-14T05:49:36;7.50;99.90
25914;DHT22;13718;50.922;5.346;2023-12-14T05:52:02;7.60;99.90
25914;DHT22;13718;50.922;5.346;2023-12-14T05:54:28;7.60;99.90
25914;DHT22;13718;50.922;5.346;2023-12-14T05:56:53;7.40;99.90
25914;DHT22;13718;50.922;5.346;2023-12-14T05:59:19;7.40;99.90
25914;DHT22;13718;50.922;5.346;2023-12-14T06:01:45;7.60;99.90
25914;DHT22;13718;50.922;5.346;2023-12-14T06:04:10;7.50;99.90
25914;DHT22;13718;50.922;5.346;2023-12-14T06:06:37;7.40;99.90
25914;DHT22;13718;50.922;5.346;2023-12-14T06:09:03;7.60;99.90
25914;DHT22;13718;50.922;5.346;2023-12-14T06:11:28;7.50;99.90
25914;DHT22;13718;50.922;5.346;2023-12-14T06:13:54;7.40;99.90
25914;DHT22;13718;50.922;5.346;2023-12-14T06:16:19;7.50;99.90
25914;DHT22;13718;50.922;5.346;2023-12-14T06:18:45;7.40;99.90
25914;DHT22;13718;50.922;5.346;2023-12-14T06:21:11;7.30;99.90
25914;DHT22;13718;50.922;5.346;2023-12-14T06:23:36;7.20;99.90
25914;DHT22;13718;50.922;5.346;2023-12-14T06:26:02;7.10;99.90
25914;DHT22;13718;50.922;5.346;2023-12-14T06:28:29;7.10;99.90
25914;DHT22;13718;50.922;5.346;2023-12-14T06:30:56;7.20;99.90
25914;DHT22;13718;50.922;5.346;2023-12-14T06:33:21;7.20;99.90
25914;DHT22;13718;50.922;5.346;2023-12-14T06:35:47;7.30;99.90
25914;DHT22;13718;50.922;5.346;2023-12-14T06:38:12;7.20;99.90
25914;DHT22;13718;50.922;5.346;2023-12-14T06:40:38;7.20;99.90
25914;DHT22;13718;50.922;5.346;2023-12-14T06:43:04;7.30;99.90
25914;DHT22;13718;50.922;5.346;2023-12-14T06:45:30;7.30;99.90
25914;DHT22;13718;50.922;5.346;2023-12-14T06:47:55;7.30;99.90
25914;DHT22;13718;50.922;5.346;2023-12-14T06:50:21;7.20;99.90
25914;DHT22;13718;50.922;5.346;2023-12-14T06:52:46;7.20;99.90
25914;DHT22;13718;50.922;5.346;2023-12-14T06:55:12;7.30;99.90
25914;DHT22;13718;50.922;5.346;2023-12-14T06:57:42;7.40;99.90
25914;DHT22;13718;50.922;5.346;2023-12-14T07:00:08;7.40;99.90
25914;DHT22;13718;50.922;5.346;2023-12-14T07:02:33;7.40;99.90
25914;DHT22;13718;50.922;5.346;2023-12-14T07:04:59;7.40;99.90
25914;DHT22;13718;50.922;5.346;2023-12-14T07:07:24;7.40;99.90
25914;DHT22;13718;50.922;5.346;2023-12-14T07:09:50;7.40;99.90
25914;DHT22;13718;50.922;5.346;2023-12-14T07:12:15;7.30;99.90
25914;DHT22;13718;50.922;5.346;2023-12-14T07:14:41;7.30;99.90
25914;DHT22;13718;50.922;5.346;2023-12-14T07:17:06;7.20;99.90
25914;DHT22;13718;50.922;5.346;2023-12-14T07:19:32;7.20;99.90
25914;DHT22;13718;50.922;5.346;2023-12-14T07:21:57;7.20;99.90
25914;DHT22;13718;50.922;5.346;2023-12-14T07:24:23;7.20;99.90
25914;DHT22;13718;50.922;5.346;2023-12-14T07:26:48;7.20;99.90
25914;DHT22;13718;50.922;5.346;2023-12-14T07:29:14;7.20;99.90
25914;DHT22;13718;50.922;5.346;2023-12-14T07:31:40;7.30;99.90
25914;DHT22;13718;50.922;5.346;2023-12-14T07:34:05;7.30;99.90
25914;DHT22;13718;50.922;5.346;2023-12-14T07:36:31;7.30;99.90
25914;DHT22;13718;50.922;5.346;2023-12-14T07:38:56;7.30;99.90
25914;DHT22;13718;50.922;5.346;2023-12-14T07:41:22;7.30;99.90
25914;DHT22;13718;50.922;5.346;2023-12-14T07:43:55;7.30;99.90
25914;DHT22;13718;50.922;5.346;2023-12-14T07:46:20;7.30;99.90
25914;DHT22;13718;50.922;5.346;2023-12-14T07:48:46;7.30;99.90
25914;DHT22;13718;50.922;5.346;2023-12-14T07:51:11;7.30;99.90
25914;DHT22;13718;50.922;5.346;2023-12-14T07:53:37;7.40;99.90
25914;DHT22;13718;50.922;5.346;2023-12-14T07:56:03;7.30;99.90
25914;DHT22;13718;50.922;5.346;2023-12-14T07:58:28;7.40;99.90
25914;DHT22;13718;50.922;5.346;2023-12-14T08:00:54;7.40;99.90
25914;DHT22;13718;50.922;5.346;2023-12-14T08:03:19;7.40;99.90
25914;DHT22;13718;50.922;5.346;2023-12-14T08:05:45;7.50;99.90
25914;DHT22;13718;50.922;5.346;2023-12-14T08:08:10;7.50;99.90
25914;DHT22;13718;50.922;5.346;2023-12-14T08:10:36;7.50;99.90
25914;DHT22;13718;50.922;5.346;2023-12-14T08:13:01;7.50;99.90
25914;DHT22;13718;50.922;5.346;2023-12-14T08:15:26;7.50;99.90
25914;DHT22;13718;50.922;5.346;2023-12-14T08:17:52;7.50;99.90
25914;DHT22;13718;50.922;5.346;2023-12-14T08:20:17;7.60;99.90
25914;DHT22;13718;50.922;5.346;2023-12-14T08:22:43;7.60;99.90
25914;DHT22;13718;50.922;5.346;2023-12-14T08:25:14;7.40;99.90
25914;DHT22;13718;50.922;5.346;2023-12-14T08:27:40;7.20;99.90
25914;DHT22;13718;50.922;5.346;2023-12-14T08:30:06;7.20;99.90
25914;DHT22;13718;50.922;5.346;2023-12-14T08:32:31;7.10;99.90
25914;DHT22;13718;50.922;5.346;2023-12-14T08:34:57;7.00;99.90
25914;DHT22;13718;50.922;5.346;2023-12-14T08:37:22;7.00;99.90
25914;DHT22;13718;50.922;5.346;2023-12-14T08:39:48;7.10;99.90
25914;DHT22;13718;50.922;5.346;2023-12-14T08:42:14;7.10;99.90
25914;DHT22;13718;50.922;5.346;2023-12-14T08:44:40;7.10;99.90
25914;DHT22;13718;50.922;5.346;2023-12-14T08:47:06;7.10;99.90
25914;DHT22;13718;50.922;5.346;2023-12-14T08:49:31;7.30;99.90
25914;DHT22;13718;50.922;5.346;2023-12-14T08:51:57;7.30;99.90
25914;DHT22;13718;50.922;5.346;2023-12-14T08:54:22;7.30;99.90
25914;DHT22;13718;50.922;5.346;2023-12-14T08:56:48;7.30;99.90
25914;DHT22;13718;50.922;5.346;2023-12-14T08:59:13;7.30;99.90
25914;DHT22;13718;50.922;5.346;2023-12-14T09:01:39;7.40;99.90
25914;DHT22;13718;50.922;5.346;2023-12-14T09:04:04;7.40;99.90
25914;DHT22;13718;50.922;5.346;2023-12-14T09:06:30;7.50;99.90
25914;DHT22;13718;50.922;5.346;2023-12-14T09:08:55;7.50;99.90
25914;DHT22;13718;50.922;5.346;2023-12-14T09:11:21;7.50;99.90
25914;DHT22;13718;50.922;5.346;2023-12-14T09:13:46;7.60;99.90
25914;DHT22;13718;50.922;5.346;2023-12-14T09:16:12;7.60;99.90
25914;DHT22;13718;50.922;5.346;2023-12-14T09:18:37;7.60;99.90
25914;DHT22;13718;50.922;5.346;2023-12-14T09:21:03;7.70;99.90
25914;DHT22;13718;50.922;5.346;2023-12-14T09:23:29;7.70;99.90
25914;DHT22;13718;50.922;5.346;2023-12-14T09:25:55;7.70;99.90
25914;DHT22;13718;50.922;5.346;2023-12-14T09:28:21;7.90;99.90
25914;DHT22;13718;50.922;5.346;2023-12-14T09:30:47;7.90;99.90
25914;DHT22;13718;50.922;5.346;2023-12-14T09:33:12;8.00;99.90
25914;DHT22;13718;50.922;5.346;2023-12-14T09:35:38;8.10;99.90
25914;DHT22;13718;50.922;5.346;2023-12-14T09:38:05;8.20;99.90
25914;DHT22;13718;50.922;5.346;2023-12-14T09:40:31;8.20;99.90
25914;DHT22;13718;50.922;5.346;2023-12-14T09:42:57;8.30;99.90
25914;DHT22;13718;50.922;5.346;2023-12-14T09:45:28;8.30;99.90
25914;DHT22;13718;50.922;5.346;2023-12-14T09:47:56;8.40;99.90
25914;DHT22;13718;50.922;5.346;2023-12-14T09:50:22;8.50;99.90
25914;DHT22;13718;50.922;5.346;2023-12-14T09:52:48;8.50;99.90
25914;DHT22;13718;50.922;5.346;2023-12-14T09:55:14;8.50;99.90
25914;DHT22;13718;50.922;5.346;2023-12-14T09:57:40;8.50;99.90
25914;DHT22;13718;50.922;5.346;2023-12-14T10:00:06;8.50;99.90
25914;DHT22;13718;50.922;5.346;2023-12-14T10:02:35;8.50;99.90
25914;DHT22;13718;50.922;5.346;2023-12-14T10:05:01;8.50;99.90
25914;DHT22;13718;50.922;5.346;2023-12-14T10:07:27;8.40;99.90
25914;DHT22;13718;50.922;5.346;2023-12-14T10:09:52;8.30;99.90
25914;DHT22;13718;50.922;5.346;2023-12-14T10:12:21;8.40;99.90
25914;DHT22;13718;50.922;5.346;2023-12-14T10:14:48;8.30;99.90
25914;DHT22;13718;50.922;5.346;2023-12-14T10:17:25;8.30;99.90
25914;DHT22;13718;50.922;5.346;2023-12-14T10:19:57;8.30;99.90
25914;DHT22;13718;50.922;5.346;2023-12-14T10:22:22;8.20;99.90
25914;DHT22;13718;50.922;5.346;2023-12-14T10:24:51;8.10;99.90
25914;DHT22;13718;50.922;5.346;2023-12-14T10:27:17;8.00;99.90
25914;DHT22;13718;50.922;5.346;2023-12-14T10:29:42;7.80;99.90
25914;DHT22;13718;50.922;5.346;2023-12-14T10:32:10;7.80;99.90
25914;DHT22;13718;50.922;5.346;2023-12-14T10:34:37;7.80;99.90
25914;DHT22;13718;50.922;5.346;2023-12-14T10:37:04;7.80;99.90
25914;DHT22;13718;50.922;5.346;2023-12-14T10:39:30;7.80;99.90
25914;DHT22;13718;50.922;5.346;2023-12-14T10:41:56;7.90;99.90
25914;DHT22;13718;50.922;5.346;2023-12-14T10:44:23;7.90;99.90
25914;DHT22;13718;50.922;5.346;2023-12-14T10:46:50;7.90;99.90
25914;DHT22;13718;50.922;5.346;2023-12-14T10:49:18;8.10;99.90
25914;DHT22;13718;50.922;5.346;2023-12-14T10:51:43;8.30;99.90
25914;DHT22;13718;50.922;5.346;2023-12-14T10:54:09;8.40;99.90
25914;DHT22;13718;50.922;5.346;2023-12-14T10:56:34;8.60;99.90
25914;DHT22;13718;50.922;5.346;2023-12-14T10:59:00;8.80;99.90
25914;DHT22;13718;50.922;5.346;2023-12-14T11:01:26;8.90;99.90
25914;DHT22;13718;50.922;5.346;2023-12-14T11:03:53;9.00;99.90
25914;DHT22;13718;50.922;5.346;2023-12-14T11:06:21;9.10;99.90
25914;DHT22;13718;50.922;5.346;2023-12-14T11:08:47;9.10;99.90
25914;DHT22;13718;50.922;5.346;2023-12-14T11:11:13;9.10;99.90
25914;DHT22;13718;50.922;5.346;2023-12-14T11:13:46;9.10;99.90
25914;DHT22;13718;50.922;5.346;2023-12-14T11:16:12;9.10;99.90
25914;DHT22;13718;50.922;5.346;2023-12-14T11:18:40;9.20;99.90
25914;DHT22;13718;50.922;5.346;2023-12-14T11:21:06;9.10;99.90
25914;DHT22;13718;50.922;5.346;2023-12-14T11:23:37;9.10;99.90
25914;DHT22;13718;50.922;5.346;2023-12-14T11:26:05;9.00;99.90
25914;DHT22;13718;50.922;5.346;2023-12-14T11:28:31;8.90;99.90
25914;DHT22;13718;50.922;5.346;2023-12-14T11:30:57;8.90;99.90
25914;DHT22;13718;50.922;5.346;2023-12-14T11:33:22;9.00;99.90
25914;DHT22;13718;50.922;5.346;2023-12-14T11:35:50;9.10;99.90
25914;DHT22;13718;50.922;5.346;2023-12-14T11:38:15;9.00;99.90
25914;DHT22;13718;50.922;5.346;2023-12-14T11:40:42;9.00;99.90
25914;DHT22;13718;50.922;5.346;2023-12-14T11:43:08;9.00;99.90
25914;DHT22;13718;50.922;5.346;2023-12-14T11:45:38;9.10;99.90
25914;DHT22;13718;50.922;5.346;2023-12-14T11:48:04;9.00;99.90
25914;DHT22;13718;50.922;5.346;2023-12-14T11:50:31;8.90;99.90
25914;DHT22;13718;50.922;5.346;2023-12-14T11:52:57;9.00;99.90
25914;DHT22;13718;50.922;5.346;2023-12-14T11:55:22;9.00;99.90
25914;DHT22;13718;50.922;5.346;2023-12-14T11:57:48;8.90;99.90
25914;DHT22;13718;50.922;5.346;2023-12-14T12:00:14;8.90;99.90
25914;DHT22;13718;50.922;5.346;2023-12-14T12:02:40;8.90;99.90
25914;DHT22;13718;50.922;5.346;2023-12-14T12:05:06;8.90;99.90
25914;DHT22;13718;50.922;5.346;2023-12-14T12:07:32;8.80;99.90
25914;DHT22;13718;50.922;5.346;2023-12-14T12:09:58;8.80;99.90
25914;DHT22;13718;50.922;5.346;2023-12-14T12:12:24;8.90;99.90
25914;DHT22;13718;50.922;5.346;2023-12-14T12:14:49;8.90;99.90
25914;DHT22;13718;50.922;5.346;2023-12-14T12:17:18;8.90;99.90
25914;DHT22;13718;50.922;5.346;2023-12-14T12:19:45;8.90;99.90
25914;DHT22;13718;50.922;5.346;2023-12-14T12:22:10;8.90;99.90
25914;DHT22;13718;50.922;5.346;2023-12-14T12:24:36;8.90;99.90
25914;DHT22;13718;50.922;5.346;2023-12-14T12:27:02;8.90;99.90
25914;DHT22;13718;50.922;5.346;2023-12-14T12:29:29;8.90;99.90
25914;DHT22;13718;50.922;5.346;2023-12-14T12:31:55;8.90;99.90
25914;DHT22;13718;50.922;5.346;2023-12-14T12:34:20;9.00;99.90
25914;DHT22;13718;50.922;5.346;2023-12-14T12:36:46;9.10;99.90
25914;DHT22;13718;50.922;5.346;2023-12-14T12:39:12;9.00;99.90
25914;DHT22;13718;50.922;5.346;2023-12-14T12:41:37;9.10;99.90
25914;DHT22;13718;50.922;5.346;2023-12-14T12:44:03;9.10;99.90
25914;DHT22;13718;50.922;5.346;2023-12-14T12:46:31;9.20;99.90
25914;DHT22;13718;50.922;5.346;2023-12-14T12:48:57;9.20;99.90
25914;DHT22;13718;50.922;5.346;2023-12-14T12:51:23;9.20;99.90
25914;DHT22;13718;50.922;5.346;2023-12-14T12:53:48;9.20;99.90
25914;DHT22;13718;50.922;5.346;2023-12-14T12:56:14;9.10;99.90
25914;DHT22;13718;50.922;5.346;2023-12-14T12:58:39;9.10;99.90
25914;DHT22;13718;50.922;5.346;2023-12-14T13:01:05;9.20;99.90
25914;DHT22;13718;50.922;5.346;2023-12-14T13:03:30;9.20;99.90
25914;DHT22;13718;50.922;5.346;2023-12-14T13:05:56;9.20;99.90
25914;DHT22;13718;50.922;5.346;2023-12-14T13:08:21;9.20;99.90
25914;DHT22;13718;50.922;5.346;2023-12-14T13:10:47;9.20;99.90
25914;DHT22;13718;50.922;5.346;2023-12-14T13:13:13;9.20;99.90
25914;DHT22;13718;50.922;5.346;2023-12-14T13:15:39;9.20;99.90
25914;DHT22;13718;50.922;5.346;2023-12-14T13:18:05;9.30;99.90
25914;DHT22;13718;50.922;5.346;2023-12-14T13:20:30;9.20;99.90
25914;DHT22;13718;50.922;5.346;2023-12-14T13:22:56;9.20;99.90
25914;DHT22;13718;50.922;5.346;2023-12-14T13:25:21;9.10;99.90
25914;DHT22;13718;50.922;5.346;2023-12-14T13:27:51;9.10;99.90
25914;DHT22;13718;50.922;5.346;2023-12-14T13:30:17;9.10;99.90
25914;DHT22;13718;50.922;5.346;2023-12-14T13:32:43;9.10;99.90
25914;DHT22;13718;50.922;5.346;2023-12-14T13:35:08;9.00;99.90
25914;DHT22;13718;50.922;5.346;2023-12-14T13:37:34;9.00;99.90
25914;DHT22;13718;50.922;5.346;2023-12-14T13:40:00;9.00;99.90
25914;DHT22;13718;50.922;5.346;2023-12-14T13:42:25;9.00;99.90
25914;DHT22;13718;50.922;5.346;2023-12-14T13:44:51;9.00;99.90
25914;DHT22;13718;50.922;5.346;2023-12-14T13:47:16;9.00;99.90
25914;DHT22;13718;50.922;5.346;2023-12-14T13:49:42;9.00;99.90
25914;DHT22;13718;50.922;5.346;2023-12-14T13:52:07;9.00;99.90
25914;DHT22;13718;50.922;5.346;2023-12-14T13:54:34;8.90;99.90
25914;DHT22;13718;50.922;5.346;2023-12-14T13:57:02;8.90;99.90
25914;DHT22;13718;50.922;5.346;2023-12-14T13:59:27;8.90;99.90
25914;DHT22;13718;50.922;5.346;2023-12-14T14:01:53;8.90;99.90
25914;DHT22;13718;50.922;5.346;2023-12-14T14:04:18;9.00;99.90
25914;DHT22;13718;50.922;5.346;2023-12-14T14:06:44;8.90;99.90
25914;DHT22;13718;50.922;5.346;2023-12-14T14:09:09;8.90;99.90
25914;DHT22;13718;50.922;5.346;2023-12-14T14:11:36;9.00;99.90
25914;DHT22;13718;50.922;5.346;2023-12-14T14:14:01;9.00;99.90
25914;DHT22;13718;50.922;5.346;2023-12-14T14:16:27;8.90;99.90
25914;DHT22;13718;50.922;5.346;2023-12-14T14:18:52;8.90;99.90
25914;DHT22;13718;50.922;5.346;2023-12-14T14:21:18;8.90;99.90
25914;DHT22;13718;50.922;5.346;2023-12-14T14:23:43;8.90;99.90
25914;DHT22;13718;50.922;5.346;2023-12-14T14:26:09;8.90;99.90
25914;DHT22;13718;50.922;5.346;2023-12-14T14:28:35;8.90;99.90
25914;DHT22;13718;50.922;5.346;2023-12-14T14:31:00;8.90;99.90
25914;DHT22;13718;50.922;5.346;2023-12-14T14:33:26;8.90;99.90
25914;DHT22;13718;50.922;5.346;2023-12-14T14:35:51;8.90;99.90
25914;DHT22;13718;50.922;5.346;2023-12-14T14:38:18;8.90;99.90
25914;DHT22;13718;50.922;5.346;2023-12-14T14:40:43;8.80;99.90
25914;DHT22;13718;50.922;5.346;2023-12-14T14:43:10;8.80;99.90
25914;DHT22;13718;50.922;5.346;2023-12-14T14:45:36;8.80;99.90
25914;DHT22;13718;50.922;5.346;2023-12-14T14:48:03;8.70;99.90
25914;DHT22;13718;50.922;5.346;2023-12-14T14:50:34;8.70;99.90
25914;DHT22;13718;50.922;5.346;2023-12-14T14:52:59;8.70;99.90
25914;DHT22;13718;50.922;5.346;2023-12-14T14:55:25;8.70;99.90
25914;DHT22;13718;50.922;5.346;2023-12-14T14:57:51;8.70;99.90
25914;DHT22;13718;50.922;5.346;2023-12-14T15:00:17;8.70;99.90
25914;DHT22;13718;50.922;5.346;2023-12-14T15:02:42;8.70;99.90
25914;DHT22;13718;50.922;5.346;2023-12-14T15:05:08;8.70;99.90
25914;DHT22;13718;50.922;5.346;2023-12-14T15:07:34;8.70;99.90
25914;DHT22;13718;50.922;5.346;2023-12-14T15:09:59;8.70;99.90
25914;DHT22;13718;50.922;5.346;2023-12-14T15:12:24;8.60;99.90
25914;DHT22;13718;50.922;5.346;2023-12-14T15:14:50;8.60;99.90
25914;DHT22;13718;50.922;5.346;2023-12-14T15:17:16;8.50;99.90
25914;DHT22;13718;50.922;5.346;2023-12-14T15:19:44;8.50;99.90
25914;DHT22;13718;50.922;5.346;2023-12-14T15:22:12;8.50;99.90
25914;DHT22;13718;50.922;5.346;2023-12-14T15:24:38;8.50;99.90
25914;DHT22;13718;50.922;5.346;2023-12-14T15:27:03;8.50;99.90
25914;DHT22;13718;50.922;5.346;2023-12-14T15:29:29;8.50;99.90
25914;DHT22;13718;50.922;5.346;2023-12-14T15:31:54;8.40;99.90
25914;DHT22;13718;50.922;5.346;2023-12-14T15:34:20;8.40;99.90
25914;DHT22;13718;50.922;5.346;2023-12-14T15:36:45;8.30;99.90